createdAt,value
2022-10-12T00:00:52.290Z,10.70
2022-10-12T00:03:22.716Z,10.32
2022-10-12T00:06:05.212Z,9.48
2022-10-12T00:08:37.120Z,9.45
2022-10-12T00:11:09.336Z,9.28
2022-10-12T00:13:39.688Z,9.10
2022-10-12T00:16:12.441Z,8.33
2022-10-12T00:18:42.739Z,8.95
2022-10-12T00:21:15.885Z,9.23
2022-10-12T00:23:46.820Z,9.43
2022-10-12T00:26:22.785Z,8.70
2022-10-12T00:28:58.881Z,8.77
2022-10-12T00:31:31.208Z,8.78
2022-10-12T00:34:04.970Z,9.17
2022-10-12T00:36:36.412Z,9.10
2022-10-12T00:39:08.883Z,8.20
2022-10-12T00:41:42.355Z,8.60
2022-10-12T00:44:38.743Z,9.08
2022-10-12T00:47:12.340Z,8.37
2022-10-12T00:49:43.981Z,8.23
2022-10-12T00:52:16.574Z,8.78
2022-10-12T00:54:49.366Z,8.73
2022-10-12T00:57:21.639Z,8.88
2022-10-12T00:59:55.005Z,9.23
2022-10-12T01:02:28.361Z,9.80
2022-10-12T01:04:59.501Z,9.30
2022-10-12T01:07:29.873Z,8.77
2022-10-12T01:10:00.445Z,9.88
2022-10-12T01:12:31.358Z,9.63
2022-10-12T01:15:02.115Z,9.33
2022-10-12T01:17:59.914Z,10.13
2022-10-12T01:20:53.358Z,9.18
2022-10-12T01:23:29.937Z,9.58
2022-10-12T01:26:35.259Z,9.43
2022-10-12T01:29:33.170Z,9.73
2022-10-12T01:32:20.909Z,9.78
2022-10-12T01:35:00.108Z,10.40
2022-10-12T01:37:36.776Z,9.35
2022-10-12T01:40:10.589Z,8.97
2022-10-12T01:42:43.319Z,9.43
2022-10-12T01:45:17.035Z,9.23
2022-10-12T01:47:52.191Z,8.80
2022-10-12T01:50:26.062Z,9.18
2022-10-12T01:53:19.245Z,8.10
2022-10-12T01:55:58.683Z,8.40
2022-10-12T01:58:53.268Z,8.50
2022-10-12T02:01:44.888Z,8.20
2022-10-12T02:04:36.522Z,8.38
2022-10-12T02:07:10.030Z,9.00
2022-10-12T02:09:41.035Z,9.05
2022-10-12T02:12:17.217Z,8.70
2022-10-12T02:14:53.163Z,9.60
2022-10-12T02:17:27.444Z,8.60
2022-10-12T02:20:00.618Z,9.00
2022-10-12T02:22:35.578Z,8.75
2022-10-12T02:25:10.994Z,8.30
2022-10-12T02:27:44.478Z,8.20
2022-10-12T02:30:15.000Z,8.53
2022-10-12T02:32:54.171Z,7.93
2022-10-12T02:35:30.435Z,8.27
2022-10-12T02:38:03.919Z,8.50
2022-10-12T02:40:39.922Z,7.53
2022-10-12T02:43:13.591Z,7.67
2022-10-12T02:45:46.612Z,8.00
2022-10-12T02:48:20.087Z,8.07
2022-10-12T02:50:52.954Z,7.80
2022-10-12T02:53:25.383Z,7.00
2022-10-12T02:56:04.290Z,7.57
2022-10-12T02:58:36.177Z,7.53
2022-10-12T03:01:06.852Z,7.10
2022-10-12T03:03:37.322Z,6.87
2022-10-12T03:06:08.163Z,6.67
2022-10-12T03:08:38.482Z,7.67
2022-10-12T03:11:11.367Z,7.72
2022-10-12T03:13:41.969Z,7.37
2022-10-12T03:16:12.901Z,7.58
2022-10-12T03:18:43.228Z,6.65
2022-10-12T03:21:13.903Z,6.12
2022-10-12T03:23:44.701Z,7.08
2022-10-12T03:26:15.100Z,6.80
2022-10-12T03:28:45.510Z,6.45
2022-10-12T03:31:15.921Z,7.20
2022-10-12T03:33:46.314Z,6.37
2022-10-12T03:36:16.728Z,6.47
2022-10-12T03:38:47.464Z,6.53
2022-10-12T03:41:17.836Z,6.70
2022-10-12T03:43:51.258Z,6.63
2022-10-12T03:46:21.880Z,5.97
2022-10-12T03:48:52.444Z,7.00
2022-10-12T03:51:23.310Z,6.33
2022-10-12T03:53:53.690Z,6.33
2022-10-12T03:56:24.076Z,6.30
2022-10-12T03:58:55.529Z,6.37
2022-10-12T04:01:26.088Z,6.80
2022-10-12T04:03:56.543Z,6.70
2022-10-12T04:06:27.007Z,6.00
2022-10-12T04:08:57.322Z,6.40
2022-10-12T04:11:27.715Z,5.87
2022-10-12T04:13:58.195Z,7.43
2022-10-12T04:16:31.034Z,7.08
2022-10-12T04:19:00.530Z,6.90
2022-10-12T04:21:32.435Z,6.35
2022-10-12T04:24:02.725Z,6.53
2022-10-12T04:26:33.250Z,6.80
2022-10-12T04:29:03.716Z,6.78
2022-10-12T04:31:34.042Z,6.57
2022-10-12T04:34:04.405Z,6.78
2022-10-12T04:36:34.796Z,6.37
2022-10-12T04:39:05.215Z,7.13
2022-10-12T04:41:35.819Z,7.00
2022-10-12T04:44:06.677Z,6.58
2022-10-12T04:46:37.012Z,6.65
2022-10-12T04:49:07.390Z,7.10
2022-10-12T04:51:37.774Z,7.17
2022-10-12T04:54:08.160Z,6.80
2022-10-12T04:56:38.498Z,6.03
2022-10-12T04:59:09.202Z,7.08
2022-10-12T05:01:39.753Z,7.17
2022-10-12T05:04:10.145Z,7.37
2022-10-12T05:06:40.475Z,7.35
2022-10-12T05:09:14.486Z,7.80
2022-10-12T05:11:43.149Z,7.43
2022-10-12T05:14:13.544Z,7.03
2022-10-12T05:16:43.988Z,6.83
2022-10-12T05:19:14.280Z,7.53
2022-10-12T05:21:44.688Z,7.12
2022-10-12T05:24:15.131Z,7.70
2022-10-12T05:26:45.476Z,7.17
2022-10-12T05:29:15.813Z,7.35
2022-10-12T05:31:46.213Z,7.90
2022-10-12T05:34:16.618Z,7.97
2022-10-12T05:36:47.694Z,7.90
2022-10-12T05:39:17.923Z,8.33
2022-10-12T05:41:48.241Z,7.47
2022-10-12T05:44:18.566Z,7.80
2022-10-12T05:46:48.972Z,7.20
2022-10-12T05:49:19.398Z,7.43
2022-10-12T05:51:49.791Z,7.33
2022-10-12T05:54:20.101Z,8.18
2022-10-12T05:56:52.498Z,7.40
2022-10-12T05:59:22.570Z,6.85
2022-10-12T06:01:53.208Z,7.35
2022-10-12T06:04:23.679Z,7.80
2022-10-12T06:06:54.076Z,8.80
2022-10-12T06:09:24.433Z,6.55
2022-10-12T06:11:56.395Z,7.65
2022-10-12T06:14:26.765Z,7.57
2022-10-12T06:16:57.144Z,6.83
2022-10-12T06:19:27.534Z,6.70
2022-10-12T06:21:58.569Z,6.50
2022-10-12T06:24:28.991Z,7.17
2022-10-12T06:26:59.358Z,6.83
2022-10-12T06:29:29.701Z,6.55
2022-10-12T06:32:00.094Z,6.60
2022-10-12T06:34:30.737Z,7.37
2022-10-12T06:37:02.148Z,7.17
2022-10-12T06:39:32.806Z,6.13
2022-10-12T06:42:03.370Z,6.90
2022-10-12T06:44:33.694Z,7.10
2022-10-12T06:47:04.008Z,6.53
2022-10-12T06:49:34.307Z,6.10
2022-10-12T06:52:05.022Z,6.90
2022-10-12T06:54:35.391Z,6.63
2022-10-12T06:57:07.671Z,6.27
2022-10-12T06:59:39.199Z,6.75
2022-10-12T07:02:12.618Z,6.30
2022-10-12T07:04:43.016Z,6.55
2022-10-12T07:07:13.418Z,6.45
2022-10-12T07:09:43.773Z,7.20
2022-10-12T07:12:14.102Z,6.60
2022-10-12T07:14:44.416Z,7.53
2022-10-12T07:17:14.859Z,6.97
2022-10-12T07:19:45.242Z,6.25
2022-10-12T07:22:15.701Z,7.80
2022-10-12T07:24:46.007Z,6.73
2022-10-12T07:27:16.748Z,6.85
2022-10-12T07:29:47.145Z,6.87
2022-10-12T07:32:17.566Z,6.87
2022-10-12T07:34:47.970Z,6.37
2022-10-12T07:37:18.390Z,6.10
2022-10-12T07:39:49.503Z,7.17
2022-10-12T07:42:19.878Z,6.70
2022-10-12T07:44:50.166Z,6.92
2022-10-12T07:47:20.534Z,6.70
2022-10-12T07:49:51.401Z,6.13
2022-10-12T07:52:21.765Z,6.57
2022-10-12T07:54:52.074Z,7.10
2022-10-12T07:57:22.423Z,7.00
2022-10-12T07:59:52.666Z,6.90
2022-10-12T08:02:23.043Z,6.37
2022-10-12T08:04:53.525Z,6.72
2022-10-12T08:07:23.959Z,6.23
2022-10-12T08:09:54.646Z,5.70
2022-10-12T08:12:25.424Z,6.33
2022-10-12T08:14:55.892Z,5.50
2022-10-12T08:17:26.589Z,6.08
2022-10-12T08:19:56.920Z,5.97
2022-10-12T08:22:27.405Z,5.62
2022-10-12T08:24:57.749Z,5.33
2022-10-12T08:27:31.089Z,5.60
2022-10-12T08:30:01.447Z,7.62
2022-10-12T08:32:33.201Z,6.17
2022-10-12T08:35:03.570Z,5.67
2022-10-12T08:37:33.885Z,5.28
2022-10-12T08:40:04.346Z,4.47
2022-10-12T08:42:44.416Z,4.30
2022-10-12T08:45:27.484Z,4.70
2022-10-12T08:47:58.826Z,5.12
2022-10-12T08:50:32.302Z,5.00
2022-10-12T08:53:07.352Z,4.87
2022-10-12T08:55:40.867Z,4.53
2022-10-12T08:58:20.869Z,6.87
2022-10-12T09:01:01.656Z,5.90
2022-10-12T09:03:49.995Z,5.72
2022-10-12T09:06:23.072Z,5.75
2022-10-12T09:09:11.597Z,5.87
2022-10-12T09:11:47.548Z,8.10
2022-10-12T09:14:21.293Z,8.83
2022-10-12T09:16:54.237Z,5.70
2022-10-12T09:19:39.458Z,5.87
2022-10-12T09:22:12.898Z,5.70
2022-10-12T09:24:43.292Z,5.87
2022-10-12T09:27:16.623Z,4.30
2022-10-12T09:29:50.155Z,4.42
2022-10-12T09:32:41.674Z,4.30
2022-10-12T09:35:15.961Z,4.42
2022-10-12T09:37:49.749Z,3.92
2022-10-12T09:40:30.498Z,3.87
2022-10-12T09:43:03.142Z,4.10
2022-10-12T09:45:37.236Z,2.85
2022-10-12T09:48:24.815Z,2.85
2022-10-12T09:51:03.705Z,2.98
2022-10-12T09:53:39.803Z,3.33
2022-10-12T09:56:16.734Z,4.35
2022-10-12T09:58:54.399Z,2.85
2022-10-12T10:01:31.249Z,3.02
2022-10-12T10:04:10.990Z,3.10
2022-10-12T10:06:44.308Z,3.15
2022-10-12T10:09:29.861Z,3.35
2022-10-12T10:12:03.357Z,3.60
2022-10-12T10:14:34.562Z,4.25
2022-10-12T10:17:05.127Z,3.50
2022-10-12T10:19:35.772Z,2.92
2022-10-12T10:22:07.159Z,3.17
2022-10-12T10:24:37.398Z,2.87
2022-10-12T10:27:08.667Z,3.30
2022-10-12T10:29:43.729Z,3.22
2022-10-12T10:32:30.117Z,2.42
2022-10-12T10:35:05.846Z,2.70
2022-10-12T10:37:36.661Z,3.30
2022-10-12T10:40:08.253Z,2.50
2022-10-12T10:42:38.632Z,2.58
2022-10-12T10:45:11.114Z,2.80
2022-10-12T10:47:46.530Z,2.75
2022-10-12T10:50:31.700Z,2.50
2022-10-12T10:53:05.494Z,2.20
2022-10-12T10:55:47.717Z,2.05
2022-10-12T10:58:30.261Z,2.22
2022-10-12T11:01:03.725Z,2.08
2022-10-12T11:03:56.725Z,1.70
2022-10-12T11:06:41.296Z,2.12
2022-10-12T11:09:23.250Z,2.12
2022-10-12T11:11:57.402Z,2.30
2022-10-12T11:14:33.637Z,2.27
2022-10-12T11:17:10.031Z,2.27
2022-10-12T11:19:55.560Z,2.10
2022-10-12T11:22:39.497Z,1.95
2022-10-12T11:25:28.247Z,2.00
2022-10-12T11:27:58.908Z,1.87
2022-10-12T11:30:32.349Z,2.02
2022-10-12T11:33:08.556Z,2.10
2022-10-12T11:35:46.776Z,1.90
2022-10-12T11:38:32.663Z,2.40
2022-10-12T11:41:35.043Z,2.30
2022-10-12T11:44:10.148Z,2.02
2022-10-12T11:46:43.583Z,2.20
2022-10-12T11:49:32.066Z,2.00
2022-10-12T11:52:05.462Z,2.67
2022-10-12T11:54:50.919Z,2.33
2022-10-12T11:57:24.289Z,2.20
2022-10-12T12:00:03.627Z,2.22
2022-10-12T12:02:59.648Z,2.33
2022-10-12T12:05:32.469Z,8.48
2022-10-12T12:08:02.829Z,15.08
2022-10-12T12:10:37.114Z,11.45
2022-10-12T12:13:13.370Z,7.58
2022-10-12T12:15:46.638Z,2.45
2022-10-12T12:18:19.846Z,4.20
2022-10-12T12:21:02.543Z,2.27
2022-10-12T12:23:54.164Z,2.05
2022-10-12T12:26:27.601Z,2.22
2022-10-12T12:29:13.316Z,2.22
2022-10-12T12:31:43.834Z,2.80
2022-10-12T12:34:18.120Z,2.47
2022-10-12T12:36:52.003Z,2.40
2022-10-12T12:39:36.317Z,2.70
2022-10-12T12:42:11.112Z,1.85
2022-10-12T12:44:44.591Z,2.20
2022-10-12T12:47:43.831Z,1.98
2022-10-12T12:50:00.498Z,2.65
2022-10-12T12:52:41.526Z,2.20
2022-10-12T12:55:21.165Z,2.25
2022-10-12T12:58:03.637Z,1.98
2022-10-12T13:01:04.505Z,1.87
2022-10-12T13:03:52.899Z,2.02
2022-10-12T13:06:29.254Z,2.25
2022-10-12T13:09:17.999Z,2.27
2022-10-12T13:12:12.692Z,1.92
2022-10-12T13:14:58.073Z,1.62
2022-10-12T13:17:43.701Z,1.77
2022-10-12T13:20:22.892Z,2.30
2022-10-12T13:22:57.760Z,1.77
2022-10-12T13:25:34.283Z,1.60
2022-10-12T13:28:07.746Z,1.62
2022-10-12T13:30:41.202Z,2.00
2022-10-12T13:33:25.176Z,1.75
2022-10-12T13:35:59.742Z,2.00
2022-10-12T13:38:30.888Z,2.50
2022-10-12T13:41:13.613Z,2.02
2022-10-12T13:43:55.096Z,1.80
2022-10-12T13:46:45.799Z,2.10
2022-10-12T13:49:28.456Z,2.10
2022-10-12T13:52:04.503Z,2.00
2022-10-12T13:54:47.404Z,2.05
2022-10-12T13:57:41.539Z,1.95
2022-10-12T14:00:25.132Z,2.20
2022-10-12T14:02:58.638Z,2.27
2022-10-12T14:05:33.985Z,1.90
2022-10-12T14:08:13.487Z,1.82
2022-10-12T14:10:49.480Z,2.15
2022-10-12T14:13:34.690Z,1.87
2022-10-12T14:16:07.209Z,2.08
2022-10-12T14:18:42.863Z,2.08
2022-10-12T14:21:25.698Z,2.00
2022-10-12T14:24:01.881Z,1.85
2022-10-12T14:26:40.862Z,1.82
2022-10-12T14:29:29.325Z,1.80
2022-10-12T14:32:02.374Z,1.70
2022-10-12T14:34:47.753Z,2.00
2022-10-12T14:37:24.089Z,2.00
2022-10-12T14:39:56.657Z,2.17
2022-10-12T14:42:35.689Z,2.02
2022-10-12T14:45:09.520Z,2.50
2022-10-12T14:47:42.945Z,2.75
2022-10-12T14:50:16.424Z,2.17
2022-10-12T14:52:52.953Z,1.90
2022-10-12T14:55:26.308Z,2.45
2022-10-12T14:57:56.880Z,2.27
2022-10-12T15:00:30.402Z,3.12
2022-10-12T15:03:01.642Z,2.20
2022-10-12T15:05:33.830Z,4.37
2022-10-12T15:08:06.107Z,1.98
2022-10-12T15:10:37.656Z,6.47
2022-10-12T15:13:08.339Z,4.20
2022-10-12T15:15:42.376Z,3.40
2022-10-12T15:18:12.824Z,3.77
2022-10-12T15:20:49.002Z,2.22
2022-10-12T15:23:15.591Z,2.25
2022-10-12T15:25:54.726Z,3.60
2022-10-12T15:28:25.361Z,2.90
2022-10-12T15:31:17.573Z,3.83
2022-10-12T15:33:30.029Z,3.70
2022-10-12T15:36:00.449Z,2.77
2022-10-12T15:38:30.840Z,2.50
2022-10-12T15:41:01.220Z,4.47
2022-10-12T15:43:32.993Z,3.12
2022-10-12T15:46:04.068Z,2.52
2022-10-12T15:48:34.427Z,3.92
2022-10-12T15:51:07.896Z,3.20
2022-10-12T15:53:38.380Z,2.60
2022-10-12T15:56:12.231Z,3.07
2022-10-12T15:58:42.606Z,3.40
2022-10-12T16:01:18.926Z,2.87
2022-10-12T16:03:50.373Z,3.05
2022-10-12T16:06:21.444Z,4.35
2022-10-12T16:08:51.955Z,3.65
2022-10-12T16:11:22.658Z,4.50
2022-10-12T16:13:56.759Z,3.83
2022-10-12T16:16:25.419Z,3.72
2022-10-12T16:18:55.728Z,4.90
2022-10-12T16:21:26.138Z,4.30
2022-10-12T16:23:56.855Z,5.10
2022-10-12T16:26:27.329Z,3.98
2022-10-12T16:28:58.493Z,4.62
2022-10-12T16:31:34.144Z,3.70
2022-10-12T16:34:04.659Z,3.27
2022-10-12T16:36:35.174Z,3.15
2022-10-12T16:39:05.489Z,3.70
2022-10-12T16:41:35.837Z,4.35
2022-10-12T16:44:06.137Z,4.60
2022-10-12T16:46:37.699Z,4.35
2022-10-12T16:49:08.010Z,4.60
2022-10-12T16:51:38.878Z,3.87
2022-10-12T16:54:09.281Z,4.03
2022-10-12T16:56:41.396Z,3.50
2022-10-12T16:59:11.971Z,3.47
2022-10-12T17:01:42.846Z,3.58
2022-10-12T17:04:14.034Z,3.87
2022-10-12T17:06:44.689Z,6.45
2022-10-12T17:09:15.687Z,4.20
2022-10-12T17:11:46.089Z,4.25
2022-10-12T17:14:17.576Z,3.80
2022-10-12T17:16:52.112Z,4.05
2022-10-12T17:19:32.354Z,3.33
2022-10-12T17:22:04.506Z,3.83
2022-10-12T17:24:37.281Z,3.30
2022-10-12T17:27:11.103Z,3.72
2022-10-12T17:29:44.523Z,4.08
2022-10-12T17:32:15.144Z,3.20
2022-10-12T17:34:46.083Z,6.15
2022-10-12T17:37:16.826Z,4.97
2022-10-12T17:39:48.378Z,5.97
2022-10-12T17:42:20.579Z,3.92
2022-10-12T17:44:51.178Z,3.52
2022-10-12T17:47:21.527Z,4.45
2022-10-12T17:49:52.019Z,4.85
2022-10-12T17:52:22.339Z,3.75
2022-10-12T17:54:52.773Z,4.05
2022-10-12T17:57:23.147Z,7.67
2022-10-12T17:59:55.114Z,3.85
2022-10-12T18:02:25.473Z,4.60
2022-10-12T18:04:55.823Z,4.37
2022-10-12T18:07:26.203Z,4.87
2022-10-12T18:12:28.953Z,5.50
2022-10-12T18:14:59.487Z,4.90
2022-10-12T18:17:30.412Z,4.53
2022-10-12T18:20:01.054Z,6.53
2022-10-12T18:22:31.434Z,6.10
2022-10-12T18:25:01.837Z,6.20
2022-10-12T18:27:32.236Z,5.08
2022-10-12T18:30:03.175Z,5.95
2022-10-12T18:32:33.601Z,5.53
2022-10-12T18:35:04.096Z,5.30
2022-10-12T18:37:34.470Z,5.80
2022-10-12T18:40:05.414Z,5.58
2022-10-12T18:42:35.841Z,5.53
2022-10-12T18:45:06.721Z,5.17
2022-10-12T18:47:38.335Z,5.28
2022-10-12T18:50:09.704Z,5.25
2022-10-12T18:52:40.080Z,7.15
2022-10-12T18:55:10.691Z,5.20
2022-10-12T18:57:41.177Z,5.10
2022-10-12T19:00:12.268Z,5.35
2022-10-12T19:02:42.581Z,7.47
2022-10-12T19:05:12.938Z,6.10
2022-10-12T19:07:43.255Z,8.50
2022-10-12T19:10:13.588Z,14.10
2022-10-12T19:12:45.876Z,9.15
2022-10-12T19:15:16.170Z,5.47
2022-10-12T19:17:46.950Z,6.58
2022-10-12T19:20:17.407Z,5.00
2022-10-12T19:22:47.782Z,5.40
2022-10-12T19:25:18.105Z,5.08
2022-10-12T19:27:48.357Z,4.72
2022-10-12T19:30:18.899Z,5.37
2022-10-12T19:32:49.539Z,5.00
2022-10-12T19:35:20.537Z,5.75
2022-10-12T19:37:51.104Z,5.45
2022-10-12T19:40:21.592Z,5.05
2022-10-12T19:42:51.995Z,4.85
2022-10-12T19:45:22.385Z,5.42
2022-10-12T19:47:52.734Z,5.25
2022-10-12T19:50:23.221Z,5.37
2022-10-12T19:52:53.617Z,5.55
2022-10-12T19:55:24.023Z,5.72
2022-10-12T19:57:54.413Z,4.70
2022-10-12T20:00:24.746Z,4.97
2022-10-12T20:02:55.143Z,5.28
2022-10-12T20:05:25.561Z,5.47
2022-10-12T20:07:55.909Z,5.35
2022-10-12T20:10:26.318Z,7.20
2022-10-12T20:12:56.761Z,5.40
2022-10-12T20:15:27.160Z,5.33
2022-10-12T20:17:57.891Z,5.90
2022-10-12T20:20:28.360Z,6.75
2022-10-12T20:22:58.747Z,9.93
2022-10-12T20:25:29.220Z,8.95
2022-10-12T20:28:01.290Z,9.38
2022-10-12T20:30:31.788Z,9.33
2022-10-12T20:33:02.245Z,11.88
2022-10-12T20:35:33.282Z,7.95
2022-10-12T20:38:04.170Z,9.25
2022-10-12T20:40:34.576Z,10.13
2022-10-12T20:43:05.135Z,6.27
2022-10-12T20:45:37.033Z,11.50
2022-10-12T20:48:07.673Z,10.23
2022-10-12T20:50:38.679Z,6.70
2022-10-12T20:53:09.061Z,10.03
2022-10-12T20:55:42.415Z,6.42
2022-10-12T20:58:12.829Z,9.18
2022-10-12T21:00:43.265Z,9.48
2022-10-12T21:03:13.734Z,6.50
2022-10-12T21:05:44.088Z,6.85
2022-10-12T21:08:14.426Z,6.70
2022-10-12T21:10:49.054Z,8.23
2022-10-12T21:13:19.567Z,6.85
2022-10-12T21:15:56.096Z,7.33
2022-10-12T21:18:27.081Z,8.33
2022-10-12T21:21:08.605Z,9.13
2022-10-12T21:23:40.236Z,10.60
2022-10-12T21:26:16.836Z,6.83
2022-10-12T21:28:48.108Z,7.55
2022-10-12T21:31:19.408Z,6.33
2022-10-12T21:33:49.779Z,5.87
2022-10-12T21:36:22.822Z,6.05
2022-10-12T21:38:53.461Z,6.67
2022-10-12T21:41:26.129Z,7.62
2022-10-12T21:43:57.253Z,8.40
2022-10-12T21:46:30.287Z,6.97
2022-10-12T21:49:01.844Z,9.65
2022-10-12T21:51:32.974Z,6.60
2022-10-12T21:54:04.907Z,8.10
2022-10-12T21:56:37.006Z,6.25
2022-10-12T21:59:07.671Z,8.73
2022-10-12T22:01:41.527Z,8.15
2022-10-12T22:04:14.905Z,7.33
2022-10-12T22:06:45.336Z,7.03
2022-10-12T22:09:19.204Z,7.70
2022-10-12T22:11:50.228Z,8.55
2022-10-12T22:14:20.852Z,8.00
2022-10-12T22:16:51.317Z,7.97
2022-10-12T22:19:21.775Z,7.17
2022-10-12T22:21:53.035Z,6.97
2022-10-12T22:24:23.429Z,8.93
2022-10-12T22:26:53.815Z,8.23
2022-10-12T22:29:24.124Z,7.53
2022-10-12T22:31:54.474Z,7.78
2022-10-12T22:34:24.776Z,6.50
2022-10-12T22:36:55.274Z,6.57
2022-10-12T22:39:26.342Z,6.70
2022-10-12T22:41:56.721Z,8.13
2022-10-12T22:44:27.124Z,6.80
2022-10-12T22:46:57.504Z,7.30
2022-10-12T22:49:27.898Z,7.83
2022-10-12T22:51:58.346Z,6.92
2022-10-12T22:54:28.738Z,6.33
2022-10-12T22:56:59.503Z,6.72
2022-10-12T22:59:29.863Z,7.92
2022-10-12T23:02:00.186Z,7.90
2022-10-12T23:04:30.578Z,7.80
2022-10-12T23:07:00.900Z,8.43
2022-10-12T23:09:31.268Z,8.10
2022-10-12T23:12:01.575Z,7.15
2022-10-12T23:14:31.971Z,7.30
2022-10-12T23:17:02.680Z,7.58
2022-10-12T23:19:32.992Z,10.60
2022-10-12T23:22:03.374Z,6.53
2022-10-12T23:24:33.738Z,7.10
2022-10-12T23:27:04.141Z,6.45
2022-10-12T23:29:34.695Z,6.93
2022-10-12T23:32:05.416Z,6.00
2022-10-12T23:34:35.760Z,7.85
2022-10-12T23:37:06.057Z,6.95
2022-10-12T23:39:37.014Z,7.33
2022-10-12T23:42:07.413Z,6.95
2022-10-12T23:44:37.742Z,6.97
2022-10-12T23:47:08.151Z,6.90
2022-10-12T23:49:39.826Z,6.00
2022-10-12T23:52:10.138Z,6.65
2022-10-12T23:54:40.538Z,6.58
2022-10-12T23:57:28.148Z,8.03
2022-10-12T23:59:42.944Z,6.33
